Ovid, Idaho
Current Conditions -  °F | °C
As of 9:35 AM on Saturday 22 Nov 2014 (Local Time) from KAFO Reporting Station
Light Snow Light Snow  
Wind Chill: 22°   Ceiling: 1000
Heat Index: 34°   Visibility: 4mi
Dew Point: 30°   Wind: 21mph
Humidity: 87%   Direction: 150°SSE
Pressure: 29.75"   Gusts: 29mph
Location:  42.3329°N, 111.271°W
Report Text: KAFO 221635Z AUTO 15018G25KT 4SM -SN BKN010 BKN016 OVC021 01/M01 A2975 RMK AO2
Loading
Personal Weather Stations






























Interactive Weather Map New forecast layout! Learn more

10-Day Weather Forecast

Advertisements
Track Severe Weather on mobile